Terminal Aerodrome Forecast
Issued by NWS

Current Version | Previous Version | Graphics & Text | Print | Product List | Glossary On
Versions: 1 2 3 4 5 6 7 8 9 10 11 12 13 14 15 16 17 18 19 20
636
FTUS41 KILN 200527
TAFLCK
TAF
KLCK 200527Z 2006/2106 26008KT P6SM FEW250
     FM201000 22006KT P6SM FEW250
     FM201600 21010G18KT P6SM SCT250
     FM202200 19008KT P6SM SCT250
     FM210400 19008KT P6SM SCT250 WS020/22040KT=

USA.gov is the U.S. government's official web portal to all federal, state and local government web resources and services.